Terminal Aerodrome Forecast
Issued by NWS Mt. Holly, NJ

Home | Current Version | Previous Version | Text Only | Print | Product List | Glossary On
Versions: 1 2 3 4 5 6 7 8 9 10 11 12 13 14 15 16 17 18 19 20 21 22 23 24
000
FTUS41 KPHI 242300
TAFPHL
TAF
KPHL 242332Z 2500/2606 33008KT P6SM SCT250
     FM250500 VRB03KT P6SM BKN250
     FM251400 15008KT P6SM BKN250
     FM252200 15010KT P6SM -SHRA BKN050 OVC100
     FM260000 13008KT 4SM SHRA BR OVC020
     FM260300 VRB05KT 2SM SHRA BR OVC010=

USA.gov is the U.S. government's official web portal to all federal, state and local government web resources and services.